Strathmore, California
Current Conditions -  °F | °C
As of 10:15 AM on Wednesday 28 Jan 2015 (Local Time) from KPTV Reporting Station
Overcast Overcast  
Wind Chill: 52°   Ceiling: 200
Heat Index: 52°   Visibility: 0mi
Dew Point: 48°   Wind: 3mph
Humidity: 88%   Direction: 220°SW
Pressure: 30.27"   Gusts: NA
Location:  36.15°N, 119.06°W
Report Text: KPTV 281815Z AUTO 22003KT M1/4SM OVC002 11/09 A3027 RMK AO1
Loading
Personal Weather Stations






























Interactive Weather Map New forecast layout! Learn more

10-Day Weather Forecast

Advertisements
Track Severe Weather on mobile